Time;durP1;ratioP1;P1;durP2;ratioP2;P2;SDS_P1;SDS_P2;PMS_P1;PMS_P2;Temp;Humidity;BMP_temperature;BMP_pressure;BME280_temperature;BME280_humidity;BME280_pressure;Samples;Min_cycle;Max_cycle;Signal;HPM_P1;HPM_P2
2024/04/08 00:02:15;;;;;;;2.83;0.50;;;19.80;1.00;;;;;;5160188;27;20529;-62
2024/04/08 00:04:43;;;;;;;2.00;0.50;;;19.80;1.00;;;;;;5160118;27;20462;-62
2024/04/08 00:07:10;;;;;;;2.70;0.50;;;19.80;1.00;;;;;;5160119;27;20793;-61
2024/04/08 00:09:36;;;;;;;4.83;0.40;;;19.70;1.00;;;;;;5160342;27;20447;-62
2024/04/08 00:12:04;;;;;;;1.27;0.40;;;19.70;1.00;;;;;;5161006;27;20709;-62
2024/04/08 00:14:32;;;;;;;1.20;0.33;;;19.60;1.00;;;;;;5160797;27;20453;-62
2024/04/08 00:16:59;;;;;;;3.67;0.50;;;19.50;1.00;;;;;;5160494;27;20507;-62
2024/04/08 00:19:25;;;;;;;3.33;0.40;;;19.50;1.00;;;;;;5159129;27;20486;-62
2024/04/08 00:21:53;;;;;;;0.80;0.50;;;19.40;1.00;;;;;;5159897;27;20501;-62
2024/04/08 00:24:19;;;;;;;3.57;0.50;;;19.30;1.00;;;;;;5160050;27;20427;-62
2024/04/08 00:26:46;;;;;;;1.87;0.40;;;19.30;1.00;;;;;;5159116;27;21078;-63
2024/04/08 00:29:12;;;;;;;1.10;0.60;;;19.20;1.00;;;;;;5156089;27;20515;-62
2024/04/08 00:31:40;;;;;;;2.87;0.40;;;19.20;1.00;;;;;;5158864;27;20447;-62
2024/04/08 00:34:06;;;;;;;0.70;0.40;;;19.10;1.00;;;;;;5158536;27;20451;-62
2024/04/08 00:36:33;;;;;;;3.43;0.60;;;19.10;1.00;;;;;;5158214;27;20895;-62
2024/04/08 00:38:59;;;;;;;1.00;0.50;;;19.00;1.00;;;;;;5159078;27;20510;-62
2024/04/08 00:41:26;;;;;;;1.30;0.33;;;19.00;1.00;;;;;;5159103;27;20443;-63
2024/04/08 00:43:52;;;;;;;0.90;0.40;;;18.90;1.00;;;;;;5159299;27;20450;-62
2024/04/08 00:46:22;;;;;;;1.23;0.40;;;18.90;1.00;;;;;;5158764;27;20439;-61
2024/04/08 00:48:52;;;;;;;2.90;0.40;;;18.90;1.00;;;;;;5159366;27;20496;-62
2024/04/08 00:51:20;;;;;;;2.03;0.30;;;18.90;1.00;;;;;;5159407;27;20439;-63
2024/04/08 00:53:49;;;;;;;2.10;0.40;;;18.90;1.00;;;;;;5158908;27;20872;-62
2024/04/08 00:56:17;;;;;;;1.63;0.40;;;19.00;1.00;;;;;;5158946;27;20447;-63
2024/04/08 00:58:44;;;;;;;1.37;0.30;;;18.90;1.00;;;;;;5159684;27;20507;-62
2024/04/08 01:01:15;;;;;;;1.10;0.40;;;18.80;1.00;;;;;;5158896;27;20466;-62
2024/04/08 01:03:42;;;;;;;4.40;0.50;;;18.80;1.00;;;;;;5159799;27;20821;-61
2024/04/08 01:06:12;;;;;;;2.30;0.40;;;18.70;1.00;;;;;;5159618;27;20439;-62
2024/04/08 01:08:39;;;;;;;2.53;0.50;;;18.60;1.00;;;;;;5158743;27;20728;-62
2024/04/08 01:11:06;;;;;;;4.73;0.60;;;18.60;1.00;;;;;;5158418;27;20525;-62
2024/04/08 01:13:32;;;;;;;1.93;0.40;;;18.60;1.00;;;;;;5158336;27;20499;-62
2024/04/08 01:16:00;;;;;;;1.07;0.40;;;18.60;1.00;;;;;;5158033;27;20762;-63
2024/04/08 01:18:26;;;;;;;1.87;0.40;;;18.70;1.00;;;;;;5159127;27;20906;-62
2024/04/08 01:20:54;;;;;;;1.10;0.40;;;18.60;1.00;;;;;;5157533;27;20438;-61
2024/04/08 01:23:24;;;;;;;0.80;0.33;;;18.70;1.00;;;;;;5157214;27;20451;-62
2024/04/08 01:25:53;;;;;;;1.57;0.47;;;18.70;1.00;;;;;;5158767;27;20872;-63
2024/04/08 01:28:19;;;;;;;0.80;0.50;;;18.60;1.00;;;;;;5156551;27;21066;-63
2024/04/08 01:30:47;;;;;;;0.60;0.30;;;18.60;1.00;;;;;;5156713;27;20455;-61
2024/04/08 01:33:13;;;;;;;1.10;0.43;;;18.70;1.00;;;;;;5153322;27;20447;-62
2024/04/08 01:35:40;;;;;;;2.10;0.40;;;18.70;1.00;;;;;;5151511;27;20443;-62
2024/04/08 01:38:06;;;;;;;3.33;0.30;;;18.70;1.00;;;;;;5158580;27;20451;-61
2024/04/08 01:40:33;;;;;;;0.70;0.40;;;18.60;1.00;;;;;;5138162;27;20447;-62
2024/04/08 01:43:01;;;;;;;4.60;0.40;;;18.60;1.00;;;;;;5156991;27;20867;-62
2024/04/08 01:45:28;;;;;;;2.30;0.50;;;18.50;1.00;;;;;;5157910;27;20839;-60
2024/04/08 01:47:54;;;;;;;0.67;0.40;;;18.50;1.00;;;;;;5157846;27;20475;-62
2024/04/08 01:50:21;;;;;;;1.33;0.57;;;18.50;1.00;;;;;;5156092;27;20443;-62
2024/04/08 01:52:47;;;;;;;1.50;0.40;;;18.40;14.20;;;;;;5137099;27;20448;-62
2024/04/08 01:55:14;;;;;;;2.53;0.47;;;18.40;29.80;;;;;;5137140;27;20452;-63
2024/04/08 01:57:40;;;;;;;1.30;0.50;;;18.50;9.10;;;;;;5137435;27;20471;-61
2024/04/08 02:00:10;;;;;;;1.60;0.37;;;18.50;1.00;;;;;;5155988;27;20458;-62
2024/04/08 02:02:36;;;;;;;0.90;0.40;;;18.50;1.00;;;;;;5158765;27;20459;-62
2024/04/08 02:05:03;;;;;;;0.80;0.40;;;18.50;1.00;;;;;;5158075;27;20776;-62
2024/04/08 02:07:29;;;;;;;1.67;0.40;;;18.50;1.00;;;;;;5157901;27;20447;-63
2024/04/08 02:09:57;;;;;;;5.63;0.37;;;18.40;1.00;;;;;;5157788;27;20534;-63
2024/04/08 02:12:24;;;;;;;4.20;0.50;;;18.40;1.00;;;;;;5158166;27;20443;-62
2024/04/08 02:14:51;;;;;;;2.53;0.43;;;18.40;1.00;;;;;;5157666;27;20446;-62
2024/04/08 02:17:18;;;;;;;1.90;0.40;;;18.40;1.00;;;;;;5158305;27;20533;-63
2024/04/08 02:21:16;;;;;;;1.00;0.40;;;18.30;1.00;;;;;;5582611;25;20540;-62
2024/04/08 02:23:42;;;;;;;3.10;0.50;;;18.40;1.00;;;;;;5545224;25;20876;-62
2024/04/08 02:26:11;;;;;;;0.80;0.60;;;18.40;1.00;;;;;;5544974;25;20448;-63
2024/04/08 02:28:37;;;;;;;2.20;0.43;;;18.40;1.00;;;;;;5545159;25;20607;-62
2024/04/08 02:31:06;;;;;;;0.93;0.50;;;18.30;17.10;;;;;;5545015;25;20518;-61
2024/04/08 02:33:32;;;;;;;1.23;0.43;;;18.30;1.00;;;;;;5544861;25;20512;-62
2024/04/08 02:36:04;;;;;;;1.30;0.40;;;18.40;1.00;;;;;;5544748;25;20523;-63
2024/04/08 02:38:34;;;;;;;1.53;0.60;;;18.30;1.00;;;;;;5545473;25;20456;-63
2024/04/08 02:41:02;;;;;;;1.73;0.40;;;18.30;1.00;;;;;;5544142;25;20464;-63
2024/04/08 02:43:28;;;;;;;1.43;0.40;;;18.20;7.20;;;;;;5544735;25;20487;-63
2024/04/08 02:45:57;;;;;;;0.80;0.40;;;18.20;1.00;;;;;;5522600;25;20457;-62
2024/04/08 02:48:23;;;;;;;1.80;0.57;;;18.10;3.80;;;;;;5509042;25;21193;-63
2024/04/08 02:50:53;;;;;;;2.23;0.50;;;18.00;29.70;;;;;;5528467;25;20536;-63
2024/04/08 02:53:19;;;;;;;3.73;0.57;;;18.00;81.00;;;;;;5507870;26;20507;-62
2024/04/08 02:55:50;;;;;;;1.13;0.50;;;18.00;99.90;;;;;;5528867;25;20514;-63
2024/04/08 02:58:16;;;;;;;1.33;0.40;;;17.90;99.90;;;;;;5545674;25;20926;-63
2024/04/08 03:00:45;;;;;;;2.80;0.70;;;17.90;99.90;;;;;;5544416;25;20448;-62
2024/04/08 03:03:11;;;;;;;0.97;0.40;;;17.90;99.90;;;;;;5544977;25;20940;-63
2024/04/08 03:05:40;;;;;;;0.83;0.40;;;17.90;99.90;;;;;;5544719;25;20464;-62
2024/04/08 03:08:07;;;;;;;1.63;0.30;;;17.80;97.50;;;;;;5520349;25;21083;-62
2024/04/08 03:10:36;;;;;;;2.03;0.40;;;17.80;99.90;;;;;;5507826;25;20894;-62
2024/04/08 03:13:05;;;;;;;0.87;0.43;;;17.70;99.90;;;;;;5507648;25;20453;-63
2024/04/08 03:15:33;;;;;;;1.07;0.50;;;17.60;99.90;;;;;;5507671;25;20457;-62
2024/04/08 03:17:59;;;;;;;1.13;0.40;;;17.50;99.90;;;;;;5507415;25;20532;-62
2024/04/08 03:20:28;;;;;;;1.90;0.40;;;17.50;99.90;;;;;;5507748;26;20544;-63
2024/04/08 03:22:54;;;;;;;1.17;0.50;;;17.50;99.90;;;;;;5507331;25;20457;-64
2024/04/08 03:25:22;;;;;;;1.17;0.50;;;17.40;99.90;;;;;;5506372;25;20977;-63
2024/04/08 03:27:51;;;;;;;1.17;0.50;;;17.40;99.90;;;;;;5505414;25;20496;-62
2024/04/08 03:30:22;;;;;;;0.83;0.40;;;17.40;99.90;;;;;;5541735;25;20499;-62
2024/04/08 03:32:50;;;;;;;1.30;0.43;;;17.40;99.90;;;;;;5528090;25;20528;-63
2024/04/08 03:35:19;;;;;;;0.83;0.40;;;17.30;99.90;;;;;;5507114;25;20552;-62
2024/04/08 03:37:47;;;;;;;1.70;0.43;;;17.30;99.90;;;;;;5504064;26;20461;-63
2024/04/08 03:40:16;;;;;;;1.17;0.50;;;17.20;99.90;;;;;;5491813;26;20470;-62
2024/04/08 03:42:42;;;;;;;1.87;0.50;;;17.20;99.90;;;;;;5526313;25;20509;-61
2024/04/08 03:45:11;;;;;;;1.17;0.50;;;17.20;99.90;;;;;;5526987;25;20444;-62
2024/04/08 03:47:43;;;;;;;0.90;0.40;;;17.10;99.90;;;;;;5526667;25;20506;-62
2024/04/08 03:50:09;;;;;;;4.53;0.40;;;17.10;99.90;;;;;;5520797;25;20510;-62
2024/04/08 03:52:37;;;;;;;1.10;0.53;;;17.00;99.90;;;;;;5525249;25;20486;-63
2024/04/08 03:55:04;;;;;;;1.00;0.50;;;17.10;99.90;;;;;;5495892;25;20473;-63
2024/04/08 03:57:32;;;;;;;2.13;0.40;;;17.00;99.90;;;;;;5491691;26;20450;-62
2024/04/08 03:59:58;;;;;;;0.77;0.50;;;17.00;99.90;;;;;;5521972;25;20452;-64
2024/04/08 04:02:27;;;;;;;2.00;0.40;;;16.90;99.90;;;;;;5510138;25;20538;-63
2024/04/08 04:04:55;;;;;;;1.27;0.40;;;16.90;1.00;;;;;;5493214;26;20522;-63
2024/04/08 04:07:25;;;;;;;0.80;0.40;;;16.90;1.00;;;;;;5513388;26;20468;-63
2024/04/08 04:09:51;;;;;;;2.40;0.50;;;16.80;1.00;;;;;;5522013;26;20456;-62
2024/04/08 04:12:19;;;;;;;2.70;0.40;;;16.80;1.00;;;;;;5503749;26;20508;-63
2024/04/08 04:14:45;;;;;;;4.43;0.50;;;16.80;1.00;;;;;;5525404;25;20568;-63
2024/04/08 04:17:14;;;;;;;0.53;0.30;;;16.80;1.00;;;;;;5524541;25;20460;-62
2024/04/08 04:19:40;;;;;;;1.17;0.47;;;16.70;99.90;;;;;;5524022;25;20550;-60
2024/04/08 04:22:11;;;;;;;1.80;0.40;;;16.80;99.90;;;;;;5502638;25;20462;-59
2024/04/08 04:24:37;;;;;;;1.87;0.40;;;16.80;99.90;;;;;;5514921;26;20456;-59
2024/04/08 04:27:07;;;;;;;1.23;0.40;;;16.80;99.90;;;;;;5523226;25;20468;-59
2024/04/08 04:29:33;;;;;;;2.60;0.43;;;16.80;99.90;;;;;;5521299;25;20508;-59
2024/04/08 04:32:01;;;;;;;2.50;0.40;;;16.80;99.90;;;;;;5522865;25;20472;-58
2024/04/08 04:34:27;;;;;;;5.53;0.40;;;16.80;99.90;;;;;;5521443;26;20464;-60
2024/04/08 04:36:56;;;;;;;3.03;0.50;;;16.80;99.90;;;;;;5497873;26;20465;-58
2024/04/08 04:39:25;;;;;;;2.20;0.50;;;16.80;99.90;;;;;;5511886;26;20809;-60
2024/04/08 04:41:53;;;;;;;2.50;0.40;;;16.70;99.90;;;;;;5514547;25;20464;-60
2024/04/08 04:44:20;;;;;;;2.90;0.50;;;16.80;99.90;;;;;;5494646;26;20510;-60
2024/04/08 04:46:49;;;;;;;4.20;0.50;;;16.70;99.90;;;;;;5488775;26;20990;-59
2024/04/08 04:49:15;;;;;;;0.77;0.50;;;16.70;99.90;;;;;;5501219;25;20513;-60
2024/04/08 04:51:45;;;;;;;1.20;0.40;;;16.70;99.90;;;;;;5517578;25;20541;-58
2024/04/08 04:54:11;;;;;;;0.63;0.40;;;16.70;99.90;;;;;;5485737;26;20449;-51
2024/04/08 04:56:42;;;;;;;2.23;0.50;;;16.70;99.90;;;;;;5515086;25;20548;-51
2024/04/08 04:59:09;;;;;;;2.17;0.60;;;16.80;99.90;;;;;;5524077;25;20480;-52
2024/04/08 05:01:38;;;;;;;1.03;0.40;;;16.80;99.90;;;;;;5524670;25;20548;-52
2024/04/08 05:04:04;;;;;;;1.97;0.40;;;16.80;99.90;;;;;;5521135;25;20460;-55
2024/04/08 05:06:33;;;;;;;2.10;0.50;;;16.80;99.90;;;;;;5512710;25;20525;-53
2024/04/08 05:08:59;;;;;;;6.00;0.50;;;16.80;99.90;;;;;;5506960;25;21127;-51
2024/04/08 05:11:27;;;;;;;0.87;0.40;;;16.80;99.90;;;;;;5508743;25;20509;-52
2024/04/08 05:13:59;;;;;;;6.83;0.70;;;16.90;99.90;;;;;;5505313;25;20509;-52
2024/04/08 05:16:28;;;;;;;2.80;0.47;;;16.90;99.90;;;;;;5512998;25;20523;-54
2024/04/08 05:18:54;;;;;;;1.03;0.50;;;16.90;99.90;;;;;;5492706;25;20447;-52
2024/04/08 05:21:24;;;;;;;2.20;0.47;;;17.00;1.00;;;;;;5510689;25;20445;-51
2024/04/08 05:23:50;;;;;;;2.23;0.60;;;16.90;99.90;;;;;;5491951;25;20524;-50
2024/04/08 05:26:19;;;;;;;2.27;0.40;;;16.90;99.90;;;;;;5487390;26;20526;-52
2024/04/08 05:28:45;;;;;;;0.70;0.50;;;16.90;1.00;;;;;;5504962;25;20513;-49
2024/04/08 05:31:16;;;;;;;0.83;0.50;;;16.70;1.00;;;;;;5502014;26;20461;-54
2024/04/08 05:33:42;;;;;;;1.40;0.40;;;16.70;1.00;;;;;;5482376;26;20556;-51
2024/04/08 05:36:11;;;;;;;1.67;0.50;;;16.60;1.00;;;;;;5513531;25;20588;-51
2024/04/08 05:38:37;;;;;;;0.70;0.40;;;16.60;1.00;;;;;;5492702;25;20522;-49
2024/04/08 05:41:06;;;;;;;1.57;0.50;;;16.70;99.90;;;;;;5490837;26;20915;-51
2024/04/08 05:43:32;;;;;;;1.40;0.50;;;16.70;99.90;;;;;;5491609;26;20509;-50
2024/04/08 05:46:01;;;;;;;0.97;0.40;;;16.80;1.00;;;;;;5519484;25;20460;-51
2024/04/08 05:48:30;;;;;;;0.70;0.40;;;16.90;1.00;;;;;;5511363;25;20501;-54
2024/04/08 05:50:59;;;;;;;0.70;0.40;;;17.00;1.00;;;;;;5488468;25;20569;-55
2024/04/08 05:53:25;;;;;;;2.53;0.60;;;17.10;99.90;;;;;;5482269;26;20457;-54
2024/04/08 05:55:54;;;;;;;1.00;0.50;;;17.30;99.90;;;;;;5479739;26;20813;-50
2024/04/08 05:58:20;;;;;;;1.73;0.50;;;17.30;99.90;;;;;;5490761;25;20500;-53
2024/04/08 06:00:48;;;;;;;1.50;0.50;;;17.40;99.90;;;;;;5514954;25;20778;-53
2024/04/08 06:03:14;;;;;;;2.53;0.60;;;17.50;99.90;;;;;;5486455;26;20975;-54
2024/04/08 06:05:47;;;;;;;3.63;0.63;;;17.50;99.90;;;;;;5480065;26;20560;-51
2024/04/08 06:08:13;;;;;;;2.50;0.60;;;17.50;99.90;;;;;;5517538;25;20468;-51
2024/04/08 06:10:44;;;;;;;4.53;0.73;;;17.50;99.90;;;;;;5519982;25;20557;-49
2024/04/08 06:13:11;;;;;;;2.00;0.60;;;17.40;99.90;;;;;;5500630;25;20461;-53
2024/04/08 06:15:40;;;;;;;3.20;0.80;;;17.30;99.90;;;;;;5492456;25;21009;-53
2024/04/08 06:18:06;;;;;;;3.47;1.10;;;17.40;99.90;;;;;;5507831;25;22815;-52
2024/04/08 06:20:35;;;;;;;1.43;0.80;;;17.40;99.90;;;;;;5490459;25;20912;-51
2024/04/08 06:23:04;;;;;;;1.83;0.70;;;17.50;99.90;;;;;;5481653;26;20974;-53
2024/04/08 06:25:32;;;;;;;1.57;0.40;;;17.50;99.90;;;;;;5510653;25;20465;-49
2024/04/08 06:27:59;;;;;;;1.90;0.70;;;17.50;99.90;;;;;;5501780;25;20462;-51
2024/04/08 06:30:27;;;;;;;4.40;0.60;;;17.50;99.90;;;;;;5516962;25;20852;-51
2024/04/08 06:32:53;;;;;;;1.67;0.50;;;17.60;99.90;;;;;;5488475;26;20526;-51
2024/04/08 06:35:22;;;;;;;1.77;0.43;;;17.70;99.90;;;;;;5492294;26;20466;-52
2024/04/08 06:37:48;;;;;;;1.23;0.50;;;17.70;99.90;;;;;;5488128;26;20518;-53
2024/04/08 06:40:19;;;;;;;1.93;0.50;;;17.70;99.90;;;;;;5507339;25;21644;-53
2024/04/08 06:42:45;;;;;;;1.70;0.63;;;17.80;99.90;;;;;;5489449;26;20461;-52
2024/04/08 06:45:14;;;;;;;6.53;0.80;;;17.80;99.90;;;;;;5492365;26;21253;-54
2024/04/08 06:47:40;;;;;;;3.07;0.40;;;17.90;99.90;;;;;;5496757;26;20466;-53
2024/04/08 06:50:09;;;;;;;7.93;0.60;;;18.00;99.90;;;;;;5491010;26;21232;-50
2024/04/08 06:52:35;;;;;;;6.13;0.60;;;18.10;99.90;;;;;;5513529;26;20849;-53
2024/04/08 06:55:04;;;;;;;4.20;0.70;;;18.20;99.90;;;;;;5493993;25;20473;-52
2024/04/08 06:57:33;;;;;;;1.27;0.60;;;18.30;99.90;;;;;;5501043;25;20804;-52
2024/04/08 07:00:03;;;;;;;4.50;0.60;;;18.40;99.90;;;;;;5503278;25;20465;-50
2024/04/08 07:02:29;;;;;;;1.40;0.60;;;18.40;79.60;;;;;;5512178;25;20468;-51
2024/04/08 07:04:57;;;;;;;1.83;0.60;;;18.50;76.90;;;;;;5513480;25;20468;-52
2024/04/08 07:07:23;;;;;;;2.17;0.50;;;18.50;48.90;;;;;;5515703;25;20978;-52
2024/04/08 07:09:52;;;;;;;1.97;0.60;;;18.60;19.30;;;;;;5499624;26;20441;-49
2024/04/08 07:12:18;;;;;;;4.50;0.50;;;18.70;15.30;;;;;;5485564;26;20516;-51
2024/04/08 07:14:52;;;;;;;1.67;0.60;;;18.80;17.20;;;;;;5486315;26;20469;-50
2024/04/08 07:17:19;;;;;;;4.10;0.60;;;18.90;1.00;;;;;;5515985;25;20464;-50
2024/04/08 07:19:49;;;;;;;0.90;0.57;;;18.90;1.00;;;;;;5506452;25;20485;-53
2024/04/08 07:22:15;;;;;;;3.40;0.70;;;19.00;1.00;;;;;;5502870;25;21011;-52
2024/04/08 07:24:44;;;;;;;2.67;0.60;;;19.10;1.00;;;;;;5520114;25;20522;-51
2024/04/08 07:27:11;;;;;;;1.10;0.50;;;19.20;1.00;;;;;;5502269;25;20460;-55
2024/04/08 07:29:39;;;;;;;1.30;0.50;;;19.30;1.00;;;;;;5515449;25;20460;-52
2024/04/08 07:32:08;;;;;;;1.80;0.50;;;19.50;1.00;;;;;;5522922;25;20509;-55
2024/04/08 07:34:37;;;;;;;4.23;0.50;;;19.60;1.00;;;;;;5522581;25;20468;-53
2024/04/08 07:37:03;;;;;;;1.07;0.70;;;19.70;1.00;;;;;;5500858;26;20571;-50
2024/04/08 07:39:32;;;;;;;1.23;0.50;;;19.80;1.00;;;;;;5497239;26;20568;-51
2024/04/08 07:41:58;;;;;;;1.00;0.50;;;19.80;1.00;;;;;;5490638;26;20530;-52
2024/04/08 07:44:27;;;;;;;1.77;0.50;;;19.90;1.00;;;;;;5510463;25;20469;-53
2024/04/08 07:46:54;;;;;;;1.03;0.50;;;20.10;1.00;;;;;;5502790;25;20530;-52
2024/04/08 07:49:25;;;;;;;1.90;0.57;;;20.20;1.00;;;;;;5518672;25;20588;-53
2024/04/08 07:51:51;;;;;;;1.10;0.40;;;20.20;1.00;;;;;;5507615;25;20453;-51
2024/04/08 07:54:20;;;;;;;1.40;0.40;;;20.30;1.00;;;;;;5488314;26;20503;-53
2024/04/08 07:56:46;;;;;;;0.97;0.30;;;20.30;1.00;;;;;;5497587;26;20465;-57
2024/04/08 07:59:14;;;;;;;0.80;0.57;;;20.40;1.00;;;;;;5520369;25;20790;-57
2024/04/08 08:01:40;;;;;;;1.30;0.50;;;20.50;1.00;;;;;;5522182;25;20464;-56
2024/04/08 08:04:09;;;;;;;0.80;0.40;;;20.70;1.00;;;;;;5497889;25;20979;-55
2024/04/08 08:06:38;;;;;;;1.03;0.50;;;20.80;1.00;;;;;;5496275;26;20452;-58
2024/04/08 08:09:07;;;;;;;3.53;0.53;;;20.90;1.00;;;;;;5488884;25;20454;-58
2024/04/08 08:11:36;;;;;;;4.67;0.50;;;21.00;1.00;;;;;;5496712;25;20626;-57
2024/04/08 08:14:05;;;;;;;6.40;1.00;;;21.10;1.00;;;;;;5502606;25;20464;-59
2024/04/08 08:16:33;;;;;;;1.73;0.43;;;21.20;1.00;;;;;;5508089;25;20481;-56
2024/04/08 08:19:02;;;;;;;2.83;0.40;;;21.30;1.00;;;;;;5490455;25;20481;-58
2024/04/08 08:21:31;;;;;;;0.90;0.40;;;21.40;1.00;;;;;;5511697;26;20495;-59
2024/04/08 08:24:02;;;;;;;0.60;0.30;;;21.50;1.00;;;;;;5515775;25;20476;-58
2024/04/08 08:26:32;;;;;;;2.30;0.70;;;21.50;1.00;;;;;;5486850;26;20366;-55
2024/04/08 08:29:00;;;;;;;2.53;0.50;;;21.60;36.50;;;;;;5490023;26;20233;-52
2024/04/08 08:31:29;;;;;;;1.03;0.40;;;21.60;79.30;;;;;;5485521;26;20525;-54
2024/04/08 08:33:58;;;;;;;5.00;0.40;;;21.70;80.00;;;;;;5487807;25;20473;-51
2024/04/08 08:36:24;;;;;;;0.93;0.30;;;21.80;80.10;;;;;;5488180;25;20944;-51
2024/04/08 08:38:52;;;;;;;1.77;0.40;;;22.00;75.40;;;;;;5481697;25;20536;-52
2024/04/08 08:41:22;;;;;;;1.77;0.40;;;22.10;74.40;;;;;;5486826;25;20522;-54
2024/04/08 08:43:54;;;;;;;0.70;0.30;;;22.10;72.40;;;;;;5493496;25;20465;-51
2024/04/08 08:46:22;;;;;;;3.20;0.40;;;22.20;72.30;;;;;;5491945;26;20520;-51
2024/04/08 08:48:56;;;;;;;2.30;0.50;;;22.20;72.00;;;;;;5505456;25;20502;-52
2024/04/08 08:51:22;;;;;;;8.33;0.70;;;22.30;71.30;;;;;;5494759;25;20451;-55
2024/04/08 08:53:51;;;;;;;2.20;0.50;;;22.30;70.80;;;;;;5491440;26;20473;-53
2024/04/08 08:56:17;;;;;;;0.70;0.40;;;22.40;68.30;;;;;;5476628;26;20476;-51
2024/04/08 08:58:55;;;;;;;1.90;0.40;;;22.60;69.00;;;;;;5475026;25;20545;-53
2024/04/08 09:01:21;;;;;;;0.70;0.40;;;22.60;68.40;;;;;;5485827;26;21064;-53
2024/04/08 09:03:50;;;;;;;3.63;0.50;;;22.60;66.60;;;;;;5514481;25;20465;-53
2024/04/08 09:06:16;;;;;;;0.90;0.30;;;22.70;66.50;;;;;;5486049;26;20481;-54
2024/04/08 09:08:45;;;;;;;3.87;0.30;;;22.90;66.20;;;;;;5484552;25;20990;-52
2024/04/08 09:11:11;;;;;;;3.47;0.47;;;23.10;64.20;;;;;;5482412;25;20553;-52
2024/04/08 09:13:40;;;;;;;3.93;0.33;;;23.30;63.90;;;;;;5489157;25;20466;-51
2024/04/08 09:16:10;;;;;;;1.97;0.40;;;23.40;64.70;;;;;;5484321;25;20474;-54
2024/04/08 09:18:38;;;;;;;1.10;0.30;;;23.50;64.30;;;;;;5484216;25;20480;-54
2024/04/08 09:21:04;;;;;;;1.70;0.40;;;23.60;63.00;;;;;;5484129;25;20458;-53
2024/04/08 09:23:35;;;;;;;2.00;0.50;;;23.70;63.10;;;;;;5486952;26;20478;-52
2024/04/08 09:26:02;;;;;;;2.20;0.47;;;23.90;62.00;;;;;;5481987;25;20523;-55
2024/04/08 09:28:30;;;;;;;7.07;0.40;;;23.90;61.10;;;;;;5481258;25;20913;-56
2024/04/08 09:30:56;;;;;;;0.83;0.30;;;23.80;59.40;;;;;;5486921;26;21074;-55
2024/04/08 09:33:28;;;;;;;0.57;0.30;;;23.90;59.60;;;;;;5500632;25;20699;-54
2024/04/08 09:35:56;;;;;;;0.70;0.40;;;23.90;58.80;;;;;;5506622;26;20458;-54
2024/04/08 09:38:25;;;;;;;1.27;0.50;;;24.00;58.40;;;;;;5497312;26;20462;-58
2024/04/08 09:40:53;;;;;;;0.90;0.40;;;24.10;58.30;;;;;;5482466;26;20466;-54
2024/04/08 09:43:22;;;;;;;1.10;0.50;;;24.20;58.00;;;;;;5479564;26;20485;-56
2024/04/08 09:45:49;;;;;;;0.57;0.30;;;24.20;57.70;;;;;;5477268;26;20899;-55
2024/04/08 09:48:19;;;;;;;1.27;0.30;;;24.20;58.10;;;;;;5486474;25;20466;-56
2024/04/08 09:50:50;;;;;;;4.33;0.77;;;24.30;58.30;;;;;;5480235;25;20554;-56
2024/04/08 09:53:18;;;;;;;2.20;0.40;;;24.40;56.80;;;;;;5480447;25;20472;-55
2024/04/08 09:55:50;;;;;;;3.40;0.57;;;24.60;56.00;;;;;;5482675;26;20465;-56
2024/04/08 09:58:20;;;;;;;1.20;0.33;;;24.60;55.00;;;;;;5504469;25;20527;-55
2024/04/08 10:00:47;;;;;;;2.60;0.30;;;24.70;54.40;;;;;;5499844;26;20464;-54
2024/04/08 10:03:18;;;;;;;2.20;0.40;;;24.80;54.40;;;;;;5510448;25;20472;-56
2024/04/08 10:05:44;;;;;;;2.30;0.60;;;24.80;54.50;;;;;;5491065;26;20470;-52
2024/04/08 10:08:16;;;;;;;1.00;0.50;;;25.00;52.90;;;;;;5505532;25;20558;-56
2024/04/08 10:10:43;;;;;;;1.30;0.30;;;25.20;52.30;;;;;;5481312;25;20522;-57
2024/04/08 10:13:12;;;;;;;4.20;0.50;;;25.40;52.60;;;;;;5480322;26;20461;-57
2024/04/08 10:15:38;;;;;;;2.30;0.40;;;25.40;51.60;;;;;;5480731;25;20384;-56
2024/04/08 10:18:09;;;;;;;1.17;0.40;;;25.50;51.00;;;;;;5468262;25;20522;-56
2024/04/08 10:20:35;;;;;;;0.83;0.43;;;25.60;50.70;;;;;;5476586;25;22893;-56
2024/04/08 10:23:04;;;;;;;0.80;0.40;;;25.70;50.10;;;;;;5483308;25;20470;-53
2024/04/08 10:25:37;;;;;;;0.60;0.30;;;25.80;48.60;;;;;;5481432;25;21275;-56
2024/04/08 10:28:09;;;;;;;0.73;0.40;;;25.90;48.80;;;;;;5479856;26;20799;-56
2024/04/08 10:30:37;;;;;;;1.90;0.40;;;26.00;47.90;;;;;;5478953;25;20523;-57
2024/04/08 10:33:06;;;;;;;2.30;0.30;;;26.10;48.40;;;;;;5484695;25;20464;-54
2024/04/08 10:35:32;;;;;;;0.60;0.33;;;26.30;48.80;;;;;;5495397;25;20482;-57
2024/04/08 10:38:01;;;;;;;0.40;0.20;;;26.50;47.40;;;;;;5511515;25;20759;-57
2024/04/08 10:40:27;;;;;;;0.63;0.30;;;26.60;47.60;;;;;;5485349;25;20525;-57
2024/04/08 10:42:59;;;;;;;2.23;0.90;;;26.80;46.50;;;;;;5483750;25;20743;-55
2024/04/08 10:45:25;;;;;;;1.20;0.43;;;26.70;46.00;;;;;;5490376;25;21281;-58
2024/04/08 10:47:59;;;;;;;0.80;0.40;;;26.90;44.70;;;;;;5488633;25;20470;-55
2024/04/08 10:50:27;;;;;;;1.83;0.90;;;27.10;46.20;;;;;;5485809;25;20526;-56
2024/04/08 10:52:56;;;;;;;1.27;0.30;;;27.30;46.80;;;;;;5496104;25;20766;-58
2024/04/08 10:55:22;;;;;;;0.80;0.40;;;27.30;43.50;;;;;;5483464;25;21019;-57
2024/04/08 10:57:51;;;;;;;0.90;0.40;;;27.40;44.30;;;;;;5493375;25;20508;-56
2024/04/08 11:00:20;;;;;;;3.43;0.43;;;27.70;44.00;;;;;;5487550;26;20458;-57
2024/04/08 11:02:49;;;;;;;1.07;0.50;;;27.80;43.40;;;;;;5495368;25;20592;-55
2024/04/08 11:05:15;;;;;;;1.43;0.43;;;27.90;42.60;;;;;;5489073;26;21428;-56
2024/04/08 11:07:44;;;;;;;3.77;0.60;;;28.00;42.20;;;;;;5491396;25;21128;-59
2024/04/08 11:10:12;;;;;;;0.90;0.27;;;28.00;39.50;;;;;;5491720;26;20469;-54
2024/04/08 11:12:41;;;;;;;2.63;0.60;;;28.10;39.20;;;;;;5520426;25;20453;-55
2024/04/08 11:15:09;;;;;;;1.07;0.30;;;27.90;38.20;;;;;;5506845;25;20464;-56
2024/04/08 11:17:41;;;;;;;2.00;0.30;;;27.90;40.20;;;;;;5492524;25;20493;-56
2024/04/08 11:20:12;;;;;;;0.77;0.33;;;28.20;42.10;;;;;;5496872;26;20917;-58
2024/04/08 11:22:41;;;;;;;0.53;0.30;;;28.60;39.80;;;;;;5493598;26;21038;-54
2024/04/08 11:25:13;;;;;;;0.90;0.47;;;29.10;38.70;;;;;;5489328;26;20470;-55
2024/04/08 11:27:43;;;;;;;1.87;0.33;;;29.40;38.30;;;;;;5483360;25;20602;-53
2024/04/08 11:30:13;;;;;;;2.93;0.30;;;29.40;37.10;;;;;;5484706;25;21211;-56
2024/04/08 11:32:45;;;;;;;2.03;0.30;;;29.30;37.70;;;;;;5487577;25;20480;-55
2024/04/08 11:35:11;;;;;;;0.90;0.37;;;29.30;38.00;;;;;;5497057;26;20515;-55
2024/04/08 11:37:39;;;;;;;1.83;0.40;;;28.80;35.70;;;;;;5513630;25;20721;-55
2024/04/08 11:40:07;;;;;;;1.70;0.30;;;29.00;35.80;;;;;;5496079;26;20482;-56
2024/04/08 11:42:36;;;;;;;2.47;0.30;;;29.30;36.00;;;;;;5489388;26;20583;-59
2024/04/08 11:45:04;;;;;;;0.70;0.40;;;29.00;36.00;;;;;;5487044;25;20481;-59
2024/04/08 11:47:32;;;;;;;2.13;0.37;;;29.00;36.60;;;;;;5485924;26;20458;-58
2024/04/08 11:50:01;;;;;;;1.80;0.50;;;29.20;36.50;;;;;;5480936;26;20481;-58
2024/04/08 11:52:30;;;;;;;1.50;0.40;;;29.10;36.30;;;;;;5494014;26;20470;-60
2024/04/08 11:54:56;;;;;;;2.30;0.30;;;29.20;36.30;;;;;;5483354;25;20582;-60
2024/04/08 11:57:25;;;;;;;1.33;0.40;;;29.30;35.10;;;;;;5494921;25;20508;-59
2024/04/08 11:59:51;;;;;;;1.00;0.33;;;29.30;35.60;;;;;;5502540;26;20544;-56
2024/04/08 12:02:20;;;;;;;1.23;0.33;;;29.40;37.10;;;;;;5489265;26;20770;-58
2024/04/08 12:04:46;;;;;;;2.53;0.40;;;29.50;36.30;;;;;;5492094;26;20466;-59
2024/04/08 12:07:17;;;;;;;1.00;0.40;;;29.60;36.30;;;;;;5484625;26;20462;-59
2024/04/08 12:09:44;;;;;;;1.43;0.43;;;29.60;35.90;;;;;;5488142;25;20470;-58
2024/04/08 12:12:14;;;;;;;1.50;0.33;;;29.70;35.40;;;;;;5491913;26;20497;-59
2024/04/08 12:14:40;;;;;;;0.70;0.30;;;29.50;35.20;;;;;;5508123;25;20484;-58
2024/04/08 12:17:11;;;;;;;2.50;0.60;;;29.50;36.10;;;;;;5499279;25;20476;-60
2024/04/08 12:19:37;;;;;;;1.77;0.60;;;29.50;35.60;;;;;;5488237;26;20539;-58
2024/04/08 12:22:06;;;;;;;1.13;0.50;;;29.20;35.80;;;;;;5482866;25;20510;-58
2024/04/08 12:24:35;;;;;;;5.67;0.50;;;29.20;34.90;;;;;;5506376;25;21249;-58
2024/04/08 12:27:04;;;;;;;1.10;0.40;;;29.20;34.90;;;;;;5497834;25;20464;-58
2024/04/08 12:29:30;;;;;;;4.47;0.50;;;29.30;36.20;;;;;;5505869;25;20869;-58
2024/04/08 12:31:59;;;;;;;0.63;0.30;;;29.40;35.30;;;;;;5499567;25;20524;-58
2024/04/08 12:34:26;;;;;;;1.83;0.40;;;29.40;35.50;;;;;;5481654;25;20531;-59
2024/04/08 12:36:54;;;;;;;1.50;0.40;;;29.10;35.80;;;;;;5482065;25;21001;-59
2024/04/08 12:39:20;;;;;;;3.57;0.53;;;29.00;36.70;;;;;;5479528;26;20462;-58
2024/04/08 12:41:52;;;;;;;5.90;0.50;;;28.80;36.00;;;;;;5483733;26;21047;-59
2024/04/08 12:44:18;;;;;;;3.27;0.37;;;28.60;37.10;;;;;;5481837;26;20520;-58
2024/04/08 12:46:47;;;;;;;1.33;0.47;;;28.60;36.80;;;;;;5480468;26;20462;-58
2024/04/08 12:49:14;;;;;;;2.67;0.33;;;28.80;36.60;;;;;;5484177;26;20513;-58
2024/04/08 12:51:43;;;;;;;1.53;0.50;;;29.00;36.80;;;;;;5485702;26;20549;-58
2024/04/08 12:54:09;;;;;;;1.67;0.40;;;29.10;37.90;;;;;;5485190;26;20438;-59
2024/04/08 12:56:38;;;;;;;1.40;0.50;;;29.40;37.80;;;;;;5519932;25;20525;-59